Time;durP1;ratioP1;P1;durP2;ratioP2;P2;SDS_P1;SDS_P2;PMS_P1;PMS_P2;Temp;Humidity;BMP_temperature;BMP_pressure;BME280_temperature;BME280_humidity;BME280_pressure;Samples;Min_cycle;Max_cycle;Signal;HPM_P1;HPM_P2
2024/02/29 00:00:00;;;;;;;8.23;3.38;;;;;;;-0.46;57.90;100847.28;4973560;28;20049;-70
2024/02/29 00:02:26;;;;;;;11.85;4.00;;;;;;;-0.97;58.06;100775.56;4981919;28;20084;-71
2024/02/29 00:04:53;;;;;;;6.93;3.55;;;;;;;-0.66;57.67;100805.31;4989712;28;20453;-70
2024/02/29 00:07:21;;;;;;;11.50;3.20;;;;;;;-0.70;58.17;100816.16;5004164;28;20185;-70
2024/02/29 00:09:47;;;;;;;11.57;3.42;;;;;;;-0.65;57.94;100830.06;4985978;28;20038;-69
2024/02/29 00:12:13;;;;;;;9.57;3.55;;;;;;;-0.62;57.53;100835.34;5003475;28;20080;-71
2024/02/29 00:14:41;;;;;;;6.85;3.45;;;;;;;-0.58;57.72;100840.63;4988774;28;20073;-72
2024/02/29 00:17:07;;;;;;;7.63;3.97;;;;;;;-0.69;58.43;100824.72;4985372;28;20381;-73
2024/02/29 00:19:33;;;;;;;7.78;3.55;;;;;;;-1.09;57.81;100762.13;5005998;28;20510;-72
2024/02/29 00:22:00;;;;;;;7.75;3.33;;;;;;;-0.79;58.15;100816.56;4984717;28;20449;-73
2024/02/29 00:24:26;;;;;;;6.57;3.15;;;;;;;-0.81;57.61;100817.28;5003138;28;20538;-74
2024/02/29 00:26:52;;;;;;;9.02;3.75;;;;;;;-1.02;58.15;100771.00;5004368;28;20144;-73
2024/02/29 00:29:18;;;;;;;12.57;4.18;;;;;;;-0.77;58.04;100803.84;5006002;28;20579;-74
2024/02/29 00:31:45;;;;;;;8.82;3.53;;;;;;;-1.04;57.74;100770.03;4985572;28;20111;-76
2024/02/29 00:34:14;;;;;;;9.65;3.75;;;;;;;-0.72;57.45;100807.53;5002421;28;20052;-73
2024/02/29 00:36:40;;;;;;;10.73;3.95;;;;;;;-0.84;58.24;100783.88;4981675;28;21718;-73
2024/02/29 00:39:07;;;;;;;11.18;3.58;;;;;;;-0.67;58.11;100808.66;4985555;28;20053;-74
2024/02/29 00:41:34;;;;;;;11.23;4.18;;;;;;;-0.54;57.92;100829.75;5005254;28;20062;-73
2024/02/29 00:44:00;;;;;;;5.28;2.83;;;;;;;-0.57;58.26;100820.25;4986823;28;20041;-73
2024/02/29 00:46:26;;;;;;;7.93;3.53;;;;;;;-0.70;58.35;100805.06;5001519;28;20516;-75
2024/02/29 00:48:52;;;;;;;8.30;3.72;;;;;;;-1.10;57.90;100742.50;5007272;28;20090;-76
2024/02/29 00:51:23;;;;;;;8.90;3.97;;;;;;;-0.67;58.32;100816.31;4984889;28;20038;-73
2024/02/29 00:53:49;;;;;;;7.07;3.57;;;;;;;-0.81;57.71;100792.59;4989376;28;20519;-71
2024/02/29 00:56:16;;;;;;;7.45;3.63;;;;;;;-0.74;57.98;100801.44;4985326;28;20049;-73
2024/02/29 00:58:42;;;;;;;8.15;3.58;;;;;;;-0.67;58.34;100820.56;4989925;28;20038;-67
2024/02/29 01:01:08;;;;;;;8.30;3.58;;;;;;;-0.85;58.13;100792.34;4973272;28;20040;-70
2024/02/29 01:03:35;;;;;;;6.20;3.53;;;;;;;-0.76;58.25;100810.72;4986566;28;20050;-70
2024/02/29 01:06:01;;;;;;;8.25;3.30;;;;;;;-1.16;58.39;100737.03;4984854;28;20084;-69
2024/02/29 01:08:27;;;;;;;7.57;3.40;;;;;;;-0.88;58.28;100785.38;4973442;28;20038;-71
2024/02/29 01:10:53;;;;;;;8.85;3.10;;;;;;;-0.79;58.21;100798.66;4986304;28;20038;-70
2024/02/29 01:13:19;;;;;;;7.68;3.90;;;;;;;-0.84;57.66;100779.63;5000917;28;20472;-71
2024/02/29 01:15:46;;;;;;;8.23;3.50;;;;;;;-1.02;58.06;100750.56;4972299;28;20456;-72
2024/02/29 01:18:12;;;;;;;7.90;3.47;;;;;;;-0.61;57.78;100809.00;5002680;28;20124;-70
2024/02/29 01:20:38;;;;;;;6.47;3.20;;;;;;;-0.64;57.98;100793.50;4984383;28;20124;-69
2024/02/29 01:23:04;;;;;;;7.47;3.60;;;;;;;-0.65;58.61;100783.16;4976938;28;20129;-69
2024/02/29 01:25:30;;;;;;;7.65;3.33;;;;;;;-0.48;58.50;100796.84;5006519;28;20038;-70
2024/02/29 01:27:56;;;;;;;7.18;4.03;;;;;;;-0.67;58.37;100754.97;4981571;28;20084;-70
2024/02/29 01:30:22;;;;;;;8.38;3.60;;;;;;;-0.53;57.86;100770.13;5006222;28;20080;-71
2024/02/29 01:32:48;;;;;;;7.65;3.78;;;;;;;-0.41;57.69;100787.78;5005383;28;20045;-70
2024/02/29 01:35:14;;;;;;;6.38;3.40;;;;;;;-0.47;57.91;100781.59;5004979;28;20558;-70
2024/02/29 01:37:41;;;;;;;7.30;3.40;;;;;;;-0.57;57.71;100745.22;5005043;28;20106;-72
2024/02/29 01:40:08;;;;;;;9.95;3.88;;;;;;;-0.59;58.23;100744.28;5005334;28;20045;-70
2024/02/29 01:42:34;;;;;;;9.30;3.53;;;;;;;-0.31;58.29;100795.16;4988479;28;20137;-70
2024/02/29 01:45:00;;;;;;;10.02;3.70;;;;;;;-0.41;57.71;100763.09;5006907;28;20504;-71
2024/02/29 01:47:26;;;;;;;10.43;3.80;;;;;;;-0.31;58.05;100767.00;5005399;28;20085;-71
2024/02/29 01:50:03;;;;;;;7.88;3.35;;;;;;;-0.23;58.15;100793.88;5004548;28;20069;-70
2024/02/29 01:52:33;;;;;;;6.38;3.30;;;;;;;-0.28;57.45;100779.06;4990239;28;20060;-71
2024/02/29 01:55:02;;;;;;;6.65;3.10;;;;;;;-0.61;57.23;100737.41;5002701;28;20128;-70
2024/02/29 01:57:34;;;;;;;11.02;4.00;;;;;;;-0.57;57.36;100740.97;4988516;28;20136;-71
2024/02/29 02:00:02;;;;;;;6.80;3.33;;;;;;;-0.29;57.34;100793.56;4987257;28;20048;-71
2024/02/29 02:02:30;;;;;;;13.43;3.53;;;;;;;-0.70;57.65;100713.03;4987211;28;20112;-71
2024/02/29 02:04:56;;;;;;;7.00;3.08;;;;;;;-0.35;57.49;100783.91;4988203;28;20160;-71
2024/02/29 02:07:23;;;;;;;6.60;3.33;;;;;;;-0.36;58.04;100787.25;5004232;28;20038;-72
2024/02/29 02:09:49;;;;;;;9.75;3.75;;;;;;;-0.34;58.29;100785.66;5004052;28;20136;-71
2024/02/29 02:12:15;;;;;;;7.45;3.53;;;;;;;-0.42;57.90;100766.47;4988017;28;20140;-70
2024/02/29 02:14:42;;;;;;;7.10;3.45;;;;;;;-0.46;57.69;100741.53;4990427;28;20041;-71
2024/02/29 02:17:10;;;;;;;5.28;2.80;;;;;;;-0.24;57.46;100771.66;5005104;28;20042;-69
2024/02/29 02:19:38;;;;;;;6.18;3.28;;;;;;;-0.25;57.89;100769.00;5000832;28;20527;-71
2024/02/29 02:22:05;;;;;;;7.57;3.15;;;;;;;-0.31;57.92;100754.22;5002377;28;20045;-69
2024/02/29 02:24:33;;;;;;;6.20;2.90;;;;;;;-0.23;57.53;100759.72;4987059;28;20034;-69
2024/02/29 02:27:00;;;;;;;11.93;3.55;;;;;;;-0.15;57.45;100766.13;5004451;28;20034;-70
2024/02/29 02:29:26;;;;;;;6.50;3.40;;;;;;;-0.07;57.34;100764.78;4990383;28;20196;-70
2024/02/29 02:31:53;;;;;;;6.88;3.08;;;;;;;-0.21;57.69;100735.09;4981704;28;20042;-70
2024/02/29 02:34:20;;;;;;;7.22;3.03;;;;;;;-0.21;57.49;100737.66;5004586;28;20050;-69
2024/02/29 02:36:47;;;;;;;6.55;3.25;;;;;;;-0.11;57.30;100752.63;5002347;28;20491;-70
2024/02/29 02:39:14;;;;;;;6.43;3.22;;;;;;;-0.05;57.32;100750.41;4992266;28;20080;-69
2024/02/29 02:41:42;;;;;;;6.65;2.80;;;;;;;0.00;57.24;100758.31;5003854;28;20045;-68
2024/02/29 02:44:08;;;;;;;9.68;3.40;;;;;;;-0.11;57.07;100742.41;5001983;28;20053;-69
2024/02/29 02:46:34;;;;;;;5.60;3.15;;;;;;;-0.06;57.68;100758.00;5001368;28;20096;-68
2024/02/29 02:49:01;;;;;;;9.73;3.25;;;;;;;-0.20;57.43;100747.94;4990885;28;20053;-67
2024/02/29 02:51:27;;;;;;;8.57;3.38;;;;;;;-0.29;57.18;100741.50;5003663;28;20100;-69
2024/02/29 02:53:53;;;;;;;6.57;3.40;;;;;;;-0.24;57.46;100747.72;4990906;28;20099;-67
2024/02/29 02:56:19;;;;;;;6.15;3.25;;;;;;;-0.44;57.39;100716.06;4987776;28;20125;-69
2024/02/29 02:58:45;;;;;;;7.78;3.80;;;;;;;-0.42;57.12;100723.00;4991178;28;20046;-68
2024/02/29 03:01:11;;;;;;;8.05;3.35;;;;;;;-0.36;57.55;100748.88;4990628;28;20065;-72
2024/02/29 03:03:37;;;;;;;7.50;3.72;;;;;;;-0.49;57.10;100742.25;4983054;28;20067;-68
2024/02/29 03:06:03;;;;;;;12.00;3.80;;;;;;;-0.38;56.91;100767.50;4985834;28;20092;-70
2024/02/29 03:08:29;;;;;;;7.70;3.50;;;;;;;-0.53;57.54;100758.25;4990783;28;20042;-69
2024/02/29 03:10:55;;;;;;;7.78;3.08;;;;;;;-0.69;57.52;100741.22;4990283;28;20037;-70
2024/02/29 03:13:22;;;;;;;4.88;2.92;;;;;;;-0.58;57.62;100769.03;5000670;28;20140;-69
2024/02/29 03:15:48;;;;;;;7.82;3.53;;;;;;;-0.61;57.87;100774.84;4974958;28;20042;-69
2024/02/29 03:18:14;;;;;;;7.38;3.22;;;;;;;-0.77;57.33;100735.72;5004145;28;20042;-69
2024/02/29 03:20:40;;;;;;;8.60;3.20;;;;;;;-0.60;57.64;100768.94;4981755;28;20409;-69
2024/02/29 03:23:06;;;;;;;6.80;3.40;;;;;;;-0.59;57.92;100767.28;4989989;28;20531;-69
2024/02/29 03:25:32;;;;;;;7.53;3.13;;;;;;;-0.70;57.68;100759.91;4973992;28;20041;-67
2024/02/29 03:27:58;;;;;;;9.50;3.60;;;;;;;-0.69;58.01;100751.44;4986007;28;20068;-66
2024/02/29 03:30:24;;;;;;;6.75;2.95;;;;;;;-0.74;58.07;100736.69;4971510;28;20041;-68
2024/02/29 03:32:53;;;;;;;7.40;3.33;;;;;;;-0.74;57.96;100734.13;5004473;28;20046;-68
2024/02/29 03:35:19;;;;;;;5.85;3.10;;;;;;;-0.58;57.60;100763.94;5002207;28;20088;-68
2024/02/29 03:37:46;;;;;;;9.40;3.33;;;;;;;-0.80;57.72;100739.81;4990195;28;20038;-68
2024/02/29 03:40:12;;;;;;;7.18;3.25;;;;;;;-0.65;58.01;100762.72;4986238;28;20033;-68
2024/02/29 03:42:39;;;;;;;6.10;3.03;;;;;;;-0.63;57.88;100761.09;4985656;28;20590;-68
2024/02/29 03:45:05;;;;;;;6.78;3.38;;;;;;;-0.80;57.49;100733.00;4985232;28;20034;-69
2024/02/29 03:47:31;;;;;;;6.72;3.08;;;;;;;-0.86;57.15;100726.69;5003299;28;20038;-67
2024/02/29 03:49:57;;;;;;;6.30;3.08;;;;;;;-0.74;57.95;100750.31;4974150;28;20041;-67
2024/02/29 03:52:24;;;;;;;8.07;3.10;;;;;;;-0.70;57.77;100753.94;4969483;28;20095;-68
2024/02/29 03:54:50;;;;;;;6.05;2.85;;;;;;;-0.91;58.13;100718.81;5003437;28;20132;-69
2024/02/29 03:57:15;;;;;;;5.60;2.83;;;;;;;-1.19;57.97;100662.78;4986212;28;20133;-70
2024/02/29 03:59:47;;;;;;;4.70;2.80;;;;;;;-0.79;57.53;100731.34;5000992;28;20042;-68
2024/02/29 04:02:14;;;;;;;7.43;2.70;;;;;;;-0.72;58.25;100741.06;5005514;28;20966;-69
2024/02/29 04:04:43;;;;;;;8.02;3.53;;;;;;;-0.76;58.01;100741.69;4984896;28;20049;-69
2024/02/29 04:07:09;;;;;;;5.63;2.92;;;;;;;-0.78;58.24;100733.97;4972433;28;20045;-68
2024/02/29 04:09:35;;;;;;;6.80;2.80;;;;;;;-0.78;57.54;100740.78;4998403;28;20046;-68
2024/02/29 04:12:01;;;;;;;8.43;2.85;;;;;;;-1.02;57.53;100704.56;5001580;28;20459;-68
2024/02/29 04:14:28;;;;;;;6.63;3.38;;;;;;;-0.93;57.67;100725.50;4986260;28;20034;-67
2024/02/29 04:16:54;;;;;;;8.40;3.08;;;;;;;-0.85;57.69;100731.00;5001679;28;20373;-69
2024/02/29 04:19:20;;;;;;;8.70;3.00;;;;;;;-1.06;58.11;100699.28;4972705;28;20057;-68
2024/02/29 04:21:46;;;;;;;8.20;3.40;;;;;;;-0.79;58.13;100737.31;4985251;28;20045;-69
2024/02/29 04:24:12;;;;;;;5.90;2.85;;;;;;;-0.79;57.77;100734.75;4985613;28;20045;-69
2024/02/29 04:26:38;;;;;;;9.13;2.83;;;;;;;-0.84;58.00;100725.09;5000932;28;20042;-69
2024/02/29 04:29:04;;;;;;;6.82;3.20;;;;;;;-1.04;58.20;100693.38;5003636;28;20080;-68
2024/02/29 04:31:30;;;;;;;6.57;2.92;;;;;;;-0.89;57.76;100716.31;4989513;28;20078;-69
2024/02/29 04:33:56;;;;;;;4.28;2.30;;;;;;;-0.82;57.67;100719.25;4990139;28;20038;-68
2024/02/29 04:36:22;;;;;;;6.30;2.95;;;;;;;-0.93;58.04;100699.94;4973073;28;20068;-69
2024/02/29 04:38:49;;;;;;;5.53;2.65;;;;;;;-0.72;57.88;100724.88;5004397;28;20044;-69
2024/02/29 04:41:16;;;;;;;3.85;2.60;;;;;;;-0.77;57.81;100711.81;4985179;28;20037;-69
2024/02/29 04:43:42;;;;;;;7.15;2.97;;;;;;;-0.71;57.55;100731.72;4966214;28;20042;-72
2024/02/29 04:46:08;;;;;;;9.75;3.00;;;;;;;-0.71;58.31;100727.47;4985886;28;20046;-70
2024/02/29 04:48:34;;;;;;;6.13;2.70;;;;;;;-0.78;57.46;100705.84;4983845;28;20081;-70
2024/02/29 04:51:00;;;;;;;8.52;2.78;;;;;;;-0.52;57.91;100744.66;5004768;28;20100;-68
2024/02/29 04:53:26;;;;;;;7.22;2.50;;;;;;;-0.43;58.11;100740.78;5001743;28;20053;-69
2024/02/29 04:55:52;;;;;;;5.70;2.78;;;;;;;-0.52;57.29;100707.97;5003471;28;20526;-70
2024/02/29 04:58:19;;;;;;;5.10;2.45;;;;;;;-0.37;57.93;100728.31;4987376;28;20050;-70
2024/02/29 05:00:45;;;;;;;5.97;2.53;;;;;;;-0.24;57.84;100742.59;5006206;28;20234;-70
2024/02/29 05:03:11;;;;;;;9.38;2.80;;;;;;;-0.21;57.33;100745.31;4989831;28;20042;-70
2024/02/29 05:05:37;;;;;;;4.63;2.40;;;;;;;-0.29;57.46;100705.69;5004673;28;20503;-69
2024/02/29 05:08:03;;;;;;;6.72;2.67;;;;;;;-0.18;57.45;100719.91;5004204;28;20482;-70
2024/02/29 05:10:29;;;;;;;6.65;2.90;;;;;;;-0.26;57.57;100709.28;4976397;28;20042;-68
2024/02/29 05:12:58;;;;;;;5.20;2.78;;;;;;;-0.11;57.16;100714.25;4989337;28;20155;-68
2024/02/29 05:15:24;;;;;;;6.80;3.03;;;;;;;0.09;57.59;100735.72;4990913;28;20065;-68
2024/02/29 05:17:50;;;;;;;7.00;2.90;;;;;;;0.07;56.83;100719.41;4985826;28;20859;-73
2024/02/29 05:20:16;;;;;;;8.10;2.72;;;;;;;0.25;56.56;100742.47;4976873;28;20039;-71
2024/02/29 05:22:43;;;;;;;6.32;2.80;;;;;;;0.21;57.05;100740.56;5004472;28;20052;-69
2024/02/29 05:25:11;;;;;;;5.95;3.10;;;;;;;0.20;56.62;100713.19;4988927;28;20092;-70
2024/02/29 05:27:38;;;;;;;7.20;3.15;;;;;;;0.52;56.55;100747.16;4974971;28;20141;-70
2024/02/29 05:30:05;;;;;;;9.10;2.90;;;;;;;0.58;56.99;100726.06;4987461;28;20046;-70
2024/02/29 05:32:32;;;;;;;7.85;2.90;;;;;;;0.82;56.33;100739.09;4995402;28;20076;-68
2024/02/29 05:34:58;;;;;;;6.85;2.85;;;;;;;0.88;56.64;100739.41;4988196;28;20714;-71
2024/02/29 05:37:24;;;;;;;7.10;2.97;;;;;;;0.96;56.49;100731.19;4975591;28;20041;-71
2024/02/29 05:39:50;;;;;;;6.72;3.22;;;;;;;1.06;56.42;100715.38;4975198;28;20431;-72
2024/02/29 05:42:16;;;;;;;6.03;3.50;;;;;;;1.15;55.81;100708.13;5005429;28;20074;-70
2024/02/29 05:44:42;;;;;;;6.90;3.00;;;;;;;1.35;56.04;100723.50;4987624;28;20038;-70
2024/02/29 05:47:09;;;;;;;9.38;3.50;;;;;;;1.61;55.48;100746.84;4990609;28;20215;-70
2024/02/29 05:49:35;;;;;;;7.13;3.28;;;;;;;1.72;55.58;100730.19;4993468;28;20033;-70
2024/02/29 05:52:02;;;;;;;7.65;4.22;;;;;;;1.81;54.79;100734.81;4992590;28;20141;-70
2024/02/29 05:54:28;;;;;;;9.90;3.30;;;;;;;1.85;54.67;100736.72;4958394;28;20068;-70
2024/02/29 05:56:57;;;;;;;6.07;3.28;;;;;;;1.40;54.58;100645.06;4992894;28;20044;-72
2024/02/29 05:59:25;;;;;;;10.98;3.42;;;;;;;1.85;54.65;100715.31;4973873;28;20060;-72
2024/02/29 06:01:51;;;;;;;8.43;3.75;;;;;;;1.95;54.35;100722.56;5004501;28;20041;-72
2024/02/29 06:04:17;;;;;;;7.18;3.55;;;;;;;1.99;54.27;100721.00;4973259;28;20042;-70
2024/02/29 06:06:43;;;;;;;6.88;3.13;;;;;;;1.90;54.56;100696.72;5004562;28;20037;-71
2024/02/29 06:09:12;;;;;;;9.27;3.60;;;;;;;2.10;54.17;100700.06;5003159;28;20066;-70
2024/02/29 06:11:39;;;;;;;6.22;3.03;;;;;;;2.32;54.06;100720.59;4971720;28;20398;-72
2024/02/29 06:14:05;;;;;;;7.18;3.22;;;;;;;2.15;53.58;100683.97;4988964;28;20132;-69
2024/02/29 06:16:34;;;;;;;9.27;3.60;;;;;;;2.22;53.86;100694.53;5010075;28;20396;-70
2024/02/29 06:19:00;;;;;;;6.68;3.22;;;;;;;2.40;53.42;100717.50;4996357;28;20473;-69
2024/02/29 06:21:26;;;;;;;7.22;3.17;;;;;;;2.21;53.51;100681.66;4997213;28;20034;-73
2024/02/29 06:23:56;;;;;;;8.15;3.38;;;;;;;2.32;53.41;100690.63;4993775;28;20508;-74
2024/02/29 06:26:24;;;;;;;7.15;3.50;;;;;;;2.41;53.33;100697.84;4997031;28;20038;-70
2024/02/29 06:28:50;;;;;;;6.43;3.00;;;;;;;2.53;53.42;100716.28;4993494;28;20042;-70
2024/02/29 06:31:19;;;;;;;6.10;3.17;;;;;;;2.55;52.82;100716.34;4992044;28;20061;-73
2024/02/29 06:33:46;;;;;;;10.25;3.45;;;;;;;2.62;53.34;100720.06;4983910;28;20049;-71
2024/02/29 06:36:12;;;;;;;9.18;3.55;;;;;;;2.51;52.96;100706.78;4989774;28;20041;-67
2024/02/29 06:38:38;;;;;;;9.50;3.58;;;;;;;2.74;52.91;100729.91;4988633;28;20050;-69
2024/02/29 06:41:09;;;;;;;5.85;3.30;;;;;;;2.75;52.83;100698.25;5001448;28;20065;-68
2024/02/29 06:43:35;;;;;;;8.93;3.70;;;;;;;2.81;52.27;100709.63;5000927;28;20038;-76
2024/02/29 06:46:05;;;;;;;8.73;3.58;;;;;;;2.92;52.21;100707.47;4984067;28;20042;-75
2024/02/29 06:48:31;;;;;;;9.65;4.38;;;;;;;3.10;52.39;100709.81;4971874;28;20543;-70
2024/02/29 06:50:57;;;;;;;6.82;3.83;;;;;;;3.24;51.88;100704.31;4979370;28;20100;-68
2024/02/29 06:53:23;;;;;;;8.82;3.33;;;;;;;3.61;52.27;100726.16;4971055;28;20057;-68
2024/02/29 06:55:49;;;;;;;11.55;4.07;;;;;;;3.75;51.27;100712.03;4987679;28;20045;-70
2024/02/29 06:58:16;;;;;;;7.15;3.55;;;;;;;3.92;50.32;100715.19;4981984;28;20193;-70
2024/02/29 07:00:42;;;;;;;10.65;4.00;;;;;;;4.10;51.66;100708.88;4970134;28;20648;-68
2024/02/29 07:03:11;;;;;;;7.05;3.35;;;;;;;4.35;50.35;100719.97;4981182;28;20053;-69
2024/02/29 07:05:37;;;;;;;6.72;3.60;;;;;;;4.40;50.17;100695.22;4969417;28;20046;-66
2024/02/29 07:08:03;;;;;;;9.90;3.50;;;;;;;4.41;49.80;100676.34;4982991;28;20030;-67
2024/02/29 07:10:30;;;;;;;6.70;3.50;;;;;;;4.59;49.60;100712.13;4998871;28;20107;-64
2024/02/29 07:12:56;;;;;;;5.55;3.60;;;;;;;4.45;49.01;100692.78;4986385;28;20075;-65
2024/02/29 07:15:22;;;;;;;7.57;3.90;;;;;;;4.51;48.97;100703.28;4998747;28;20092;-66
2024/02/29 07:17:48;;;;;;;7.05;3.47;;;;;;;4.47;49.62;100691.13;4986933;28;20622;-68
2024/02/29 07:20:15;;;;;;;8.65;3.63;;;;;;;4.70;49.38;100722.75;4981561;28;20042;-70
2024/02/29 07:22:45;;;;;;;6.65;3.53;;;;;;;4.70;49.70;100691.81;4981338;28;20485;-67
2024/02/29 07:25:12;;;;;;;8.30;3.45;;;;;;;4.91;48.72;100724.22;4999712;28;20053;-66
2024/02/29 07:27:40;;;;;;;6.80;3.75;;;;;;;5.05;49.28;100722.91;4987483;28;20870;-71
2024/02/29 07:30:09;;;;;;;8.70;3.97;;;;;;;5.20;48.55;100719.88;4982295;28;20045;-67
2024/02/29 07:32:35;;;;;;;7.15;3.60;;;;;;;5.29;48.88;100701.19;4998190;28;20106;-66
2024/02/29 07:35:01;;;;;;;8.48;3.80;;;;;;;5.66;48.05;100712.47;4997862;28;20492;-65
2024/02/29 07:37:28;;;;;;;8.65;3.67;;;;;;;5.64;47.27;100706.41;4998572;28;20068;-64
2024/02/29 07:39:54;;;;;;;6.38;3.63;;;;;;;5.65;47.40;100715.03;4971054;28;20053;-65
2024/02/29 07:42:20;;;;;;;7.70;3.20;;;;;;;5.68;47.73;100712.53;4998071;28;20030;-63
2024/02/29 07:44:46;;;;;;;6.57;3.78;;;;;;;5.87;47.27;100713.84;5000265;28;20137;-69
2024/02/29 07:47:12;;;;;;;8.18;3.55;;;;;;;5.92;47.00;100704.53;4987030;28;20037;-66
2024/02/29 07:49:38;;;;;;;7.57;3.50;;;;;;;5.95;46.35;100693.41;4983887;28;21367;-65
2024/02/29 07:52:04;;;;;;;9.57;3.53;;;;;;;6.20;46.46;100715.56;4980838;28;20068;-66
2024/02/29 07:54:30;;;;;;;7.65;3.95;;;;;;;6.15;46.28;100697.38;4979422;28;20068;-68
2024/02/29 07:56:57;;;;;;;8.05;4.32;;;;;;;6.38;46.60;100715.13;4994414;28;20038;-68
2024/02/29 07:59:25;;;;;;;7.57;4.28;;;;;;;6.08;46.31;100695.47;4979966;28;20088;-71
2024/02/29 08:01:51;;;;;;;8.25;3.95;;;;;;;6.23;45.98;100712.16;4995066;28;20481;-67
2024/02/29 08:04:17;;;;;;;9.82;4.20;;;;;;;6.13;45.84;100698.16;4993652;28;20046;-69
2024/02/29 08:06:43;;;;;;;10.20;4.38;;;;;;;6.06;45.92;100688.53;4979523;28;20049;-68
2024/02/29 08:09:10;;;;;;;8.45;4.18;;;;;;;6.19;45.53;100721.56;4980499;28;20081;-68
2024/02/29 08:11:38;;;;;;;11.65;3.95;;;;;;;6.18;45.90;100712.91;4974978;28;20166;-70
2024/02/29 08:14:04;;;;;;;8.95;4.30;;;;;;;6.01;46.06;100699.63;4984594;28;20428;-70
2024/02/29 08:16:30;;;;;;;8.98;3.70;;;;;;;6.10;46.04;100711.00;4968843;28;20053;-69
2024/02/29 08:18:57;;;;;;;6.03;3.90;;;;;;;6.00;45.54;100691.81;4984473;28;20050;-74
2024/02/29 08:21:23;;;;;;;8.77;3.97;;;;;;;5.77;45.16;100658.50;4976798;28;20038;-69
2024/02/29 08:23:50;;;;;;;10.48;3.85;;;;;;;5.45;46.11;100660.28;4978843;28;20492;-74
2024/02/29 08:26:16;;;;;;;8.25;4.15;;;;;;;5.66;46.16;100690.97;4997722;28;20817;-71
2024/02/29 08:28:43;;;;;;;8.40;4.05;;;;;;;5.46;45.80;100664.63;4983735;28;20804;-74
2024/02/29 08:31:09;;;;;;;8.43;4.40;;;;;;;5.55;45.37;100681.22;4997831;28;20080;-71
2024/02/29 08:33:35;;;;;;;10.35;4.03;;;;;;;5.74;45.96;100699.75;4999789;28;20120;-72
2024/02/29 08:36:02;;;;;;;9.35;4.20;;;;;;;5.87;45.50;100716.44;4971244;28;20089;-71
2024/02/29 08:38:32;;;;;;;7.40;4.30;;;;;;;5.90;46.05;100716.53;4982696;28;20069;-70
2024/02/29 08:40:58;;;;;;;9.55;4.00;;;;;;;5.69;45.97;100676.41;4999279;28;20397;-72
2024/02/29 08:43:24;;;;;;;9.38;4.43;;;;;;;5.63;45.29;100670.22;4981072;28;20504;-73
2024/02/29 08:45:51;;;;;;;7.07;4.00;;;;;;;5.72;45.43;100691.97;4971297;28;21067;-71
2024/02/29 08:48:17;;;;;;;9.75;4.32;;;;;;;5.83;45.40;100704.31;4982832;28;20034;-68
2024/02/29 08:50:43;;;;;;;7.95;3.90;;;;;;;5.58;45.65;100663.22;5001314;28;20041;-72
2024/02/29 08:53:10;;;;;;;9.00;4.20;;;;;;;6.04;46.00;100724.66;4983168;28;20316;-72
2024/02/29 08:55:36;;;;;;;8.35;4.35;;;;;;;5.99;45.54;100690.03;4985215;28;20404;-72
2024/02/29 08:58:02;;;;;;;8.52;4.05;;;;;;;5.89;45.74;100647.59;5005485;28;20045;-70
2024/02/29 09:00:28;;;;;;;10.93;4.32;;;;;;;6.17;45.19;100680.19;5009302;28;20050;-68
2024/02/29 09:02:54;;;;;;;10.65;4.75;;;;;;;6.08;45.40;100663.56;4983950;28;20499;-70
2024/02/29 09:05:20;;;;;;;8.70;3.92;;;;;;;6.69;45.62;100717.53;4984230;28;20141;-71
2024/02/29 09:07:47;;;;;;;12.52;4.10;;;;;;;6.69;45.30;100673.53;4984756;28;20137;-69
2024/02/29 09:10:13;;;;;;;12.05;4.00;;;;;;;7.10;45.65;100689.03;5001071;28;20152;-69
2024/02/29 09:12:39;;;;;;;9.85;4.28;;;;;;;7.63;44.64;100716.78;4973390;28;20057;-69
2024/02/29 09:15:05;;;;;;;11.50;4.35;;;;;;;7.77;43.83;100691.09;4990437;28;20042;-69
2024/02/29 09:17:32;;;;;;;10.00;3.92;;;;;;;8.10;44.16;100696.81;5000268;28;20093;-67
2024/02/29 09:19:58;;;;;;;8.18;4.07;;;;;;;8.49;43.81;100713.84;4984894;28;20073;-67
2024/02/29 09:22:24;;;;;;;10.38;4.22;;;;;;;8.40;42.58;100688.59;4988291;28;20131;-66
2024/02/29 09:24:50;;;;;;;11.05;4.22;;;;;;;8.17;42.79;100654.56;4994561;28;20042;-67
2024/02/29 09:27:16;;;;;;;7.07;3.92;;;;;;;8.63;41.99;100698.47;4993909;28;20045;-67
2024/02/29 09:29:42;;;;;;;6.72;3.90;;;;;;;8.85;42.58;100688.38;5013192;28;20384;-67
2024/02/29 09:32:09;;;;;;;7.38;4.28;;;;;;;9.46;41.58;100685.59;4994716;28;20062;-69
2024/02/29 09:34:37;;;;;;;6.60;4.00;;;;;;;9.82;41.52;100698.03;4988932;28;20045;-68
2024/02/29 09:37:04;;;;;;;7.43;4.00;;;;;;;9.61;40.94;100634.59;4992230;28;20041;-69
2024/02/29 09:39:30;;;;;;;10.40;4.18;;;;;;;9.93;40.52;100642.66;4991768;28;20042;-68
2024/02/29 09:41:57;;;;;;;8.15;4.40;;;;;;;9.97;40.02;100677.34;4979824;28;20041;-69
2024/02/29 09:44:24;;;;;;;9.48;4.13;;;;;;;9.74;40.06;100687.56;4989628;28;20054;-67
2024/02/29 09:46:50;;;;;;;8.25;3.78;;;;;;;9.71;39.97;100695.31;4991161;28;20037;-67
2024/02/29 09:49:17;;;;;;;6.28;4.13;;;;;;;9.60;40.11;100670.09;4989310;28;20041;-68
2024/02/29 09:51:46;;;;;;;10.05;4.18;;;;;;;9.46;39.89;100675.19;5005043;28;20069;-68
2024/02/29 09:54:20;;;;;;;9.93;4.88;;;;;;;9.28;40.13;100636.91;5002650;28;20060;-66
2024/02/29 09:56:46;;;;;;;8.70;4.47;;;;;;;9.72;39.92;100691.88;4987081;28;20049;-65
2024/02/29 09:59:17;;;;;;;10.32;4.78;;;;;;;10.11;39.98;100685.25;5003899;28;20050;-68
2024/02/29 10:01:55;;;;;;;8.63;4.13;;;;;;;10.32;39.41;100681.03;4970397;28;20053;-73
2024/02/29 10:04:21;;;;;;;8.23;4.50;;;;;;;10.68;39.47;100671.75;5004311;28;20081;-68
2024/02/29 10:06:46;;;;;;;9.27;4.28;;;;;;;11.26;38.57;100683.22;4981236;28;20042;-71
2024/02/29 10:09:13;;;;;;;7.97;3.95;;;;;;;11.58;38.77;100651.13;4989123;28;20045;-71
2024/02/29 10:11:43;;;;;;;8.02;4.28;;;;;;;11.78;37.87;100685.03;4988111;28;20038;-69
2024/02/29 10:14:26;;;;;;;10.77;4.40;;;;;;;11.88;37.56;100691.09;4979352;28;20429;-65
2024/02/29 10:16:54;;;;;;;9.35;4.45;;;;;;;12.25;37.75;100680.66;4997940;28;20062;-68
2024/02/29 10:19:22;;;;;;;8.57;4.72;;;;;;;12.29;37.07;100671.97;4969666;28;20049;-69
2024/02/29 10:21:49;;;;;;;9.73;5.10;;;;;;;12.40;36.69;100648.44;4970722;28;20065;-71
2024/02/29 10:24:15;;;;;;;10.60;5.35;;;;;;;12.60;36.50;100665.78;4970807;28;20493;-67
2024/02/29 10:26:41;;;;;;;9.57;4.72;;;;;;;12.64;36.01;100663.19;4979450;28;20076;-68
2024/02/29 10:29:16;;;;;;;10.40;5.30;;;;;;;12.35;35.62;100660.66;5005493;28;20042;-80
2024/02/29 10:31:49;;;;;;;9.23;4.38;;;;;;;12.02;35.74;100658.13;4980839;28;20038;-80
2024/02/29 10:34:42;;;;;;;;;;;;;;;;;;;;;
2024/02/29 10:37:21;;;;;;;8.80;4.75;;;;;;;11.98;36.30;100698.06;4977228;28;20042;-80
2024/02/29 10:39:48;;;;;;;12.43;4.88;;;;;;;11.23;35.96;100637.19;4991702;28;20492;-75
2024/02/29 10:42:17;;;;;;;7.35;4.20;;;;;;;11.44;36.48;100690.22;4985599;28;20041;-74
2024/02/29 10:44:52;;;;;;;8.50;4.60;;;;;;;11.05;36.41;100650.16;5003993;28;20522;-74
2024/02/29 10:47:20;;;;;;;11.85;5.05;;;;;;;10.79;36.71;100638.81;4986557;28;20131;-76
2024/02/29 10:50:13;;;;;;;8.23;4.88;;;;;;;10.76;36.38;100672.63;5003004;28;20049;-74
2024/02/29 10:53:10;;;;;;;8.95;4.85;;;;;;;10.48;36.58;100684.66;5001320;28;20528;-76
2024/02/29 10:56:27;;;;;;;10.52;4.93;;;;;;;10.33;36.86;100686.28;5005313;28;20045;-75
2024/02/29 10:59:03;;;;;;;8.40;4.90;;;;;;;9.71;37.06;100607.81;5004538;28;20206;-73
2024/02/29 11:01:39;;;;;;;11.88;4.70;;;;;;;9.23;37.48;100562.41;4982387;28;20568;-72
2024/02/29 11:04:06;;;;;;;17.20;5.20;;;;;;;9.60;37.52;100651.91;4985829;28;20065;-75
2024/02/29 11:06:38;;;;;;;11.60;4.93;;;;;;;9.62;37.89;100686.56;5005668;28;20877;-72
2024/02/29 11:09:08;;;;;;;8.25;4.30;;;;;;;9.37;38.22;100684.63;4983316;28;20149;-75
2024/02/29 11:11:35;;;;;;;7.63;4.97;;;;;;;9.22;37.57;100678.41;4991812;28;20045;-74
2024/02/29 11:14:07;;;;;;;8.65;4.47;;;;;;;9.10;38.03;100697.31;4990141;28;20045;-73
2024/02/29 11:16:41;;;;;;;13.93;4.40;;;;;;;8.98;38.55;100702.38;4987294;28;20045;-75
2024/02/29 11:19:58;;;;;;;8.38;5.05;;;;;;;9.11;38.32;100693.00;4988896;28;20079;-75
2024/02/29 11:22:12;;;;;;;7.75;4.45;;;;;;;8.47;38.60;100590.13;4966543;28;20065;-74
2024/02/29 11:24:45;;;;;;;8.73;4.45;;;;;;;8.91;38.78;100657.31;4986313;28;20037;-73
2024/02/29 11:27:12;;;;;;;10.10;4.78;;;;;;;8.69;38.72;100631.09;4977809;28;20070;-72
2024/02/29 11:29:42;;;;;;;10.02;4.40;;;;;;;8.98;39.11;100671.22;4993579;28;20045;-77